Time;durP1;ratioP1;P1;durP2;ratioP2;P2;SDS_P1;SDS_P2;PMS_P1;PMS_P2;Temp;Humidity;BMP_temperature;BMP_pressure;BME280_temperature;BME280_humidity;BME280_pressure;Samples;Min_cycle;Max_cycle;Signal;HPM_P1;HPM_P2
2023/07/01 00:00:08;;;;;;;5.97;3.30;;;22.50;66.60;;;;;;5001162;28;20054;-68
2023/07/01 00:02:36;;;;;;;6.78;4.50;;;22.50;66.70;;;;;;5001154;28;20030;-68
2023/07/01 00:05:07;;;;;;;5.68;3.80;;;22.50;66.60;;;;;;5002577;28;20036;-68
2023/07/01 00:07:32;;;;;;;4.03;3.47;;;22.50;66.60;;;;;;5000859;28;20042;-68
2023/07/01 00:09:58;;;;;;;5.57;3.45;;;22.50;66.50;;;;;;5010916;28;20026;-68
2023/07/01 00:12:23;;;;;;;5.88;4.05;;;22.50;66.40;;;;;;5003182;28;20030;-68
2023/07/01 00:14:49;;;;;;;6.50;4.00;;;22.50;66.40;;;;;;5001475;28;20026;-66
2023/07/01 00:17:16;;;;;;;4.15;3.70;;;22.50;66.40;;;;;;5002211;28;20083;-67
2023/07/01 00:19:43;;;;;;;6.07;3.42;;;22.50;66.40;;;;;;5006513;28;20034;-66
2023/07/01 00:22:08;;;;;;;3.65;2.88;;;22.50;66.60;;;;;;5000638;28;20026;-66
2023/07/01 00:24:34;;;;;;;4.35;3.30;;;22.50;66.30;;;;;;5003671;28;20045;-66
2023/07/01 00:26:59;;;;;;;4.82;3.42;;;22.50;66.40;;;;;;5001987;28;20035;-68
2023/07/01 00:29:25;;;;;;;5.45;3.28;;;22.50;66.40;;;;;;5005262;28;20041;-68
2023/07/01 00:31:50;;;;;;;4.75;3.05;;;22.50;66.30;;;;;;5006382;28;20200;-69
2023/07/01 00:34:16;;;;;;;4.15;2.65;;;22.50;66.30;;;;;;5007988;28;20026;-67
2023/07/01 00:36:42;;;;;;;5.53;3.63;;;22.50;66.40;;;;;;5006228;28;20034;-69
2023/07/01 00:39:07;;;;;;;6.40;3.45;;;22.50;66.60;;;;;;5007908;28;20386;-68
2023/07/01 00:41:33;;;;;;;3.83;3.30;;;22.40;66.50;;;;;;5006455;28;20507;-68
2023/07/01 00:43:58;;;;;;;3.53;3.20;;;22.50;66.60;;;;;;5008805;28;20029;-67
2023/07/01 00:46:24;;;;;;;6.03;3.13;;;22.40;66.30;;;;;;5006855;28;20041;-68
2023/07/01 00:48:50;;;;;;;4.55;3.42;;;22.40;66.50;;;;;;5004464;28;20530;-68
2023/07/01 00:51:16;;;;;;;5.75;3.20;;;22.50;66.40;;;;;;5004463;28;20117;-68
2023/07/01 00:53:42;;;;;;;3.40;3.03;;;22.50;66.50;;;;;;5003278;28;20026;-67
2023/07/01 00:56:08;;;;;;;7.15;3.33;;;22.50;66.40;;;;;;5002885;28;20065;-67
2023/07/01 00:58:34;;;;;;;4.55;3.45;;;22.50;66.20;;;;;;5004394;28;20048;-67
2023/07/01 01:01:04;;;;;;;2.70;2.50;;;22.50;66.40;;;;;;5005587;28;20121;-69
2023/07/01 01:03:40;;;;;;;4.30;2.97;;;22.40;66.30;;;;;;5006417;28;20033;-69
2023/07/01 01:06:15;;;;;;;6.57;3.00;;;22.40;66.40;;;;;;5004544;28;20030;-68
2023/07/01 01:08:59;;;;;;;3.50;3.20;;;22.40;66.40;;;;;;5005381;28;20781;-68
2023/07/01 01:11:28;;;;;;;4.53;2.90;;;22.40;66.30;;;;;;5002101;28;20034;-67
2023/07/01 01:13:55;;;;;;;3.28;2.60;;;22.40;66.40;;;;;;5004708;28;20540;-67
2023/07/01 01:16:21;;;;;;;5.72;3.53;;;22.40;66.40;;;;;;5005504;28;20086;-68
2023/07/01 01:18:50;;;;;;;3.60;2.90;;;22.40;66.40;;;;;;5000417;28;20038;-68
2023/07/01 01:21:17;;;;;;;3.58;2.80;;;22.40;66.40;;;;;;5006028;28;20030;-68
2023/07/01 01:23:48;;;;;;;3.70;2.65;;;22.40;66.20;;;;;;5005684;28;20030;-68
2023/07/01 01:26:22;;;;;;;3.00;2.80;;;22.40;66.30;;;;;;5005042;28;20037;-69
2023/07/01 01:28:48;;;;;;;4.22;3.30;;;22.40;66.40;;;;;;5004569;28;20060;-68
2023/07/01 01:31:13;;;;;;;3.35;2.95;;;22.40;66.30;;;;;;5006040;28;20037;-67
2023/07/01 01:33:40;;;;;;;2.88;2.67;;;22.40;66.30;;;;;;5006086;28;20578;-67
2023/07/01 01:36:17;;;;;;;3.17;2.88;;;22.40;66.30;;;;;;5006069;28;20121;-68
2023/07/01 01:38:43;;;;;;;3.42;2.70;;;22.40;66.30;;;;;;5003428;28;20121;-68
2023/07/01 01:41:14;;;;;;;3.15;2.80;;;22.40;66.30;;;;;;5002389;28;20129;-69
2023/07/01 01:44:02;;;;;;;4.20;2.45;;;22.30;66.20;;;;;;5003780;28;20451;-67
2023/07/01 01:46:28;;;;;;;3.42;2.97;;;22.40;66.40;;;;;;5004135;28;20037;-66
2023/07/01 01:49:02;;;;;;;3.45;3.15;;;22.40;66.30;;;;;;5001858;28;20029;-68
2023/07/01 01:51:28;;;;;;;3.05;2.65;;;22.40;66.10;;;;;;5004571;28;20034;-66
2023/07/01 01:53:55;;;;;;;2.90;2.70;;;22.40;66.10;;;;;;5003013;28;20470;-67
2023/07/01 01:56:21;;;;;;;3.15;2.70;;;22.30;66.20;;;;;;5003313;28;20600;-69
2023/07/01 01:58:47;;;;;;;2.58;2.38;;;22.40;66.20;;;;;;5003518;28;20505;-67
2023/07/01 02:01:13;;;;;;;3.38;3.08;;;22.30;66.20;;;;;;5006021;28;20034;-68
2023/07/01 02:03:38;;;;;;;2.80;2.60;;;22.40;66.30;;;;;;5003625;28;20112;-68
2023/07/01 02:06:04;;;;;;;3.17;2.58;;;22.30;66.10;;;;;;5002873;28;20032;-67
2023/07/01 02:08:30;;;;;;;3.22;2.78;;;22.30;66.10;;;;;;5002528;28;20508;-67
2023/07/01 02:10:55;;;;;;;3.22;2.92;;;22.30;66.10;;;;;;5004967;28;20054;-67
2023/07/01 02:13:20;;;;;;;2.83;2.40;;;22.30;66.20;;;;;;5004696;28;20026;-67
2023/07/01 02:15:46;;;;;;;3.33;2.55;;;22.30;66.00;;;;;;5002704;28;20523;-68
2023/07/01 02:18:12;;;;;;;5.25;3.10;;;22.30;66.00;;;;;;5000872;28;20054;-68
2023/07/01 02:20:37;;;;;;;4.35;3.22;;;22.30;66.10;;;;;;5001791;28;20429;-68
2023/07/01 02:23:03;;;;;;;5.03;3.13;;;22.30;66.00;;;;;;5003240;28;20325;-68
2023/07/01 02:25:28;;;;;;;3.20;2.90;;;22.30;66.20;;;;;;5004243;28;20041;-67
2023/07/01 02:27:54;;;;;;;3.47;3.17;;;22.30;65.90;;;;;;5003782;28;20528;-68
2023/07/01 02:30:19;;;;;;;3.67;3.38;;;22.30;66.20;;;;;;5004909;28;20041;-67
2023/07/01 02:32:44;;;;;;;3.35;3.05;;;22.30;66.00;;;;;;5003322;28;20783;-68
2023/07/01 02:35:10;;;;;;;4.43;3.13;;;22.30;66.00;;;;;;5004134;28;20038;-66
2023/07/01 02:37:35;;;;;;;3.50;3.17;;;22.30;66.00;;;;;;5001113;28;20068;-66
2023/07/01 02:40:04;;;;;;;3.78;3.17;;;22.30;66.10;;;;;;5004047;28;20026;-66
2023/07/01 02:42:29;;;;;;;5.03;3.50;;;22.30;65.80;;;;;;5002904;28;20073;-67
2023/07/01 02:44:55;;;;;;;5.40;3.22;;;22.30;66.10;;;;;;5002960;28;20042;-64
2023/07/01 02:47:20;;;;;;;3.50;3.20;;;22.30;66.00;;;;;;5003961;28;20041;-68
2023/07/01 02:49:46;;;;;;;3.28;2.80;;;22.30;66.10;;;;;;5002130;28;20030;-67
2023/07/01 02:52:11;;;;;;;4.03;2.88;;;22.30;66.10;;;;;;5003943;28;20127;-68
2023/07/01 02:54:41;;;;;;;3.28;3.08;;;22.30;66.00;;;;;;5002179;28;20117;-67
2023/07/01 02:57:08;;;;;;;4.47;3.55;;;22.30;65.90;;;;;;5003469;28;20037;-69
2023/07/01 02:59:34;;;;;;;3.85;3.45;;;22.30;66.00;;;;;;5003337;28;20065;-68
2023/07/01 03:02:00;;;;;;;3.67;3.38;;;22.30;66.00;;;;;;4995452;28;20057;-67
2023/07/01 03:04:25;;;;;;;3.42;3.20;;;22.30;66.10;;;;;;5003346;28;20413;-67
2023/07/01 03:06:50;;;;;;;3.50;3.10;;;22.30;66.00;;;;;;5001111;28;20034;-68
2023/07/01 03:09:16;;;;;;;4.28;2.97;;;22.20;66.00;;;;;;5003347;28;20030;-67
2023/07/01 03:11:42;;;;;;;4.22;3.70;;;22.20;66.00;;;;;;5001828;28;20038;-68
2023/07/01 03:14:07;;;;;;;3.72;3.42;;;22.20;65.90;;;;;;5002807;28;20029;-66
2023/07/01 03:16:33;;;;;;;4.50;3.97;;;22.20;66.10;;;;;;5000904;28;20053;-68
2023/07/01 03:18:59;;;;;;;4.28;3.10;;;22.20;65.90;;;;;;4998898;28;20080;-67
2023/07/01 03:21:25;;;;;;;3.90;3.50;;;22.20;66.00;;;;;;5002591;28;20076;-68
2023/07/01 03:23:50;;;;;;;3.35;3.05;;;22.20;65.90;;;;;;4999906;28;20125;-68
2023/07/01 03:26:16;;;;;;;4.00;3.58;;;22.20;66.00;;;;;;5001822;28;20441;-68
2023/07/01 03:28:42;;;;;;;3.67;3.38;;;22.20;66.00;;;;;;5004220;28;20037;-68
2023/07/01 03:31:08;;;;;;;3.88;3.58;;;22.20;65.80;;;;;;5005297;28;20030;-67
2023/07/01 03:33:33;;;;;;;3.95;3.65;;;22.20;66.00;;;;;;5003808;28;20061;-68
2023/07/01 03:35:59;;;;;;;3.70;3.40;;;22.20;65.80;;;;;;5002717;28;20808;-66
2023/07/01 03:38:25;;;;;;;3.90;3.60;;;22.20;66.50;;;;;;5006333;28;20037;-65
2023/07/01 03:40:51;;;;;;;4.25;3.50;;;22.30;66.40;;;;;;5003490;28;20030;-62
2023/07/01 03:43:17;;;;;;;4.82;3.83;;;22.30;66.40;;;;;;5004531;28;20049;-64
2023/07/01 03:45:42;;;;;;;3.65;3.35;;;22.30;66.60;;;;;;5001854;28;20076;-62
2023/07/01 03:48:08;;;;;;;4.53;3.55;;;22.30;66.70;;;;;;5001488;28;20096;-67
2023/07/01 03:50:33;;;;;;;3.78;3.40;;;22.30;66.70;;;;;;5001359;28;20104;-67
2023/07/01 03:52:59;;;;;;;4.20;3.88;;;22.30;66.60;;;;;;5001484;28;20619;-67
2023/07/01 03:55:25;;;;;;;4.13;3.75;;;22.30;66.60;;;;;;5007013;28;20079;-65
2023/07/01 03:57:50;;;;;;;4.20;3.80;;;22.30;66.50;;;;;;5004717;28;20034;-67
2023/07/01 04:00:19;;;;;;;4.22;3.85;;;22.30;66.40;;;;;;5004386;28;20034;-66
2023/07/01 04:02:50;;;;;;;4.55;3.85;;;22.30;66.40;;;;;;5006049;28;20065;-67
2023/07/01 04:05:16;;;;;;;5.05;4.00;;;22.30;66.40;;;;;;5006528;28;20026;-67
2023/07/01 04:07:43;;;;;;;6.50;4.45;;;22.30;66.30;;;;;;5006174;28;20038;-66
2023/07/01 04:10:10;;;;;;;3.92;3.58;;;22.30;66.30;;;;;;5004215;28;21500;-67
2023/07/01 04:12:37;;;;;;;4.32;3.80;;;22.30;66.30;;;;;;5005196;28;20034;-66
2023/07/01 04:15:09;;;;;;;5.03;3.40;;;22.30;66.20;;;;;;5000211;28;20030;-67
2023/07/01 04:17:36;;;;;;;3.53;3.28;;;22.30;66.20;;;;;;5006040;28;20042;-66
2023/07/01 04:20:03;;;;;;;4.03;3.65;;;22.30;66.10;;;;;;5003836;28;20029;-67
2023/07/01 04:22:29;;;;;;;5.00;3.70;;;22.30;66.20;;;;;;5004632;28;20037;-67
2023/07/01 04:24:54;;;;;;;3.50;3.20;;;22.30;66.10;;;;;;5004876;28;20021;-66
2023/07/01 04:27:20;;;;;;;4.38;3.97;;;22.30;66.10;;;;;;5005750;28;20121;-67
2023/07/01 04:29:45;;;;;;;4.78;3.65;;;22.30;66.10;;;;;;5005370;28;20030;-67
2023/07/01 04:32:11;;;;;;;3.90;3.50;;;22.30;66.10;;;;;;5006677;28;20121;-65
2023/07/01 04:34:36;;;;;;;3.95;3.65;;;22.30;66.10;;;;;;5003586;28;20034;-66
2023/07/01 04:37:02;;;;;;;3.58;3.28;;;22.30;66.10;;;;;;5004132;28;20048;-65
2023/07/01 04:39:27;;;;;;;3.47;3.17;;;22.30;66.10;;;;;;5004689;28;20037;-63
2023/07/01 04:41:53;;;;;;;3.25;2.95;;;22.30;66.10;;;;;;5005935;28;20053;-64
2023/07/01 04:44:18;;;;;;;4.85;3.33;;;22.40;66.10;;;;;;5005846;28;20041;-65
2023/07/01 04:46:44;;;;;;;4.15;3.75;;;22.30;66.00;;;;;;5002071;28;20057;-67
2023/07/01 04:49:10;;;;;;;6.03;3.40;;;22.30;66.00;;;;;;5006110;28;20618;-64
2023/07/01 04:51:36;;;;;;;3.30;3.00;;;22.40;66.00;;;;;;5005934;28;20034;-67
2023/07/01 04:54:04;;;;;;;4.88;3.38;;;22.40;66.00;;;;;;5005090;28;20033;-66
2023/07/01 04:56:30;;;;;;;4.05;3.63;;;22.30;66.00;;;;;;5005743;28;20078;-67
2023/07/01 04:58:55;;;;;;;4.85;3.45;;;22.30;65.90;;;;;;5002211;28;20066;-65
2023/07/01 05:01:21;;;;;;;4.55;2.78;;;22.40;65.90;;;;;;5005911;28;20123;-66
2023/07/01 05:03:46;;;;;;;3.40;3.10;;;22.40;65.90;;;;;;5000710;28;20026;-68
2023/07/01 05:06:12;;;;;;;3.03;2.70;;;22.40;65.90;;;;;;5005506;28;20037;-66
2023/07/01 05:08:37;;;;;;;5.45;3.53;;;22.40;65.90;;;;;;5003555;28;20651;-67
2023/07/01 05:11:03;;;;;;;3.45;2.83;;;22.40;65.90;;;;;;5003742;28;20046;-69
2023/07/01 05:13:29;;;;;;;3.67;2.80;;;22.40;65.90;;;;;;5002463;28;20038;-71
2023/07/01 05:15:54;;;;;;;4.50;2.80;;;22.40;65.80;;;;;;5003381;28;20560;-69
2023/07/01 05:18:20;;;;;;;3.70;3.03;;;22.40;65.80;;;;;;5003279;28;20037;-65
2023/07/01 05:20:45;;;;;;;6.10;4.40;;;22.40;66.00;;;;;;5005427;28;20033;-67
2023/07/01 05:23:11;;;;;;;10.35;4.40;;;22.40;67.00;;;;;;5004454;28;20121;-69
2023/07/01 05:25:36;;;;;;;12.70;4.43;;;22.40;67.00;;;;;;5003769;28;20029;-68
2023/07/01 05:28:02;;;;;;;11.68;4.07;;;22.40;67.00;;;;;;5003260;28;20034;-68
2023/07/01 05:30:27;;;;;;;7.35;3.63;;;22.40;67.20;;;;;;5004054;28;20064;-67
2023/07/01 05:32:53;;;;;;;4.13;3.28;;;22.40;66.20;;;;;;5002168;28;20018;-68
2023/07/01 05:35:18;;;;;;;5.88;3.08;;;22.30;65.80;;;;;;5004341;28;20081;-68
2023/07/01 05:37:44;;;;;;;4.68;3.10;;;22.30;65.70;;;;;;5004708;28;20038;-69
2023/07/01 05:40:11;;;;;;;5.90;3.55;;;22.30;65.50;;;;;;5001863;28;20030;-68
2023/07/01 05:42:37;;;;;;;3.65;2.75;;;22.40;65.40;;;;;;5022595;28;20466;-68
2023/07/01 05:45:03;;;;;;;4.38;2.90;;;22.30;65.30;;;;;;5002085;28;20034;-67
2023/07/01 05:47:28;;;;;;;5.72;3.40;;;22.30;65.30;;;;;;5003201;28;20088;-65
2023/07/01 05:49:54;;;;;;;5.65;3.55;;;22.40;65.50;;;;;;5003819;28;20034;-66
2023/07/01 05:52:20;;;;;;;5.43;2.92;;;22.30;65.30;;;;;;5005103;28;20061;-75
2023/07/01 05:54:46;;;;;;;4.40;2.83;;;22.30;65.20;;;;;;5003335;28;20734;-66
2023/07/01 05:57:12;;;;;;;2.90;2.60;;;22.30;65.10;;;;;;5004343;28;20034;-65
2023/07/01 05:59:37;;;;;;;4.10;2.58;;;22.30;65.00;;;;;;5003813;28;20057;-65
2023/07/01 06:02:03;;;;;;;6.72;3.13;;;22.30;65.00;;;;;;5004231;28;20041;-64
2023/07/01 06:04:28;;;;;;;3.83;2.72;;;22.40;65.00;;;;;;5004680;28;20029;-66
2023/07/01 06:06:54;;;;;;;6.70;2.90;;;22.30;64.90;;;;;;5003702;28;20038;-66
2023/07/01 06:09:19;;;;;;;3.97;2.58;;;22.30;64.80;;;;;;5001693;28;20030;-64
2023/07/01 06:11:44;;;;;;;3.60;2.47;;;22.30;64.70;;;;;;4999960;28;20565;-66
2023/07/01 06:14:10;;;;;;;2.85;2.33;;;22.30;64.70;;;;;;5004483;28;20164;-64
2023/07/01 06:16:37;;;;;;;2.95;2.50;;;22.30;64.60;;;;;;5004888;28;20394;-64
2023/07/01 06:19:02;;;;;;;2.58;2.10;;;22.30;64.60;;;;;;5006389;28;20027;-68
2023/07/01 06:21:28;;;;;;;4.65;2.83;;;22.30;64.50;;;;;;5004153;28;20034;-65
2023/07/01 06:23:55;;;;;;;2.75;2.40;;;22.30;64.50;;;;;;5004135;28;20155;-67
2023/07/01 06:26:21;;;;;;;3.83;2.70;;;22.30;64.50;;;;;;5003504;28;20041;-67
2023/07/01 06:28:47;;;;;;;4.35;2.90;;;22.30;64.60;;;;;;5003749;28;20037;-68
2023/07/01 06:31:12;;;;;;;3.78;2.70;;;22.30;64.60;;;;;;5001700;28;20076;-67
2023/07/01 06:33:41;;;;;;;5.05;2.45;;;22.30;64.60;;;;;;5005252;28;20045;-66
2023/07/01 06:36:07;;;;;;;5.32;2.80;;;22.30;64.50;;;;;;5004572;28;20037;-67
2023/07/01 06:38:32;;;;;;;5.57;2.60;;;22.30;64.50;;;;;;5002536;28;20037;-68
2023/07/01 06:40:58;;;;;;;2.63;2.33;;;22.30;64.50;;;;;;5005107;28;20386;-67
2023/07/01 06:43:24;;;;;;;6.38;2.30;;;22.30;64.50;;;;;;5005160;28;20994;-67
2023/07/01 06:45:49;;;;;;;4.35;2.55;;;22.30;64.50;;;;;;5006953;28;20045;-65
2023/07/01 06:48:15;;;;;;;4.50;2.35;;;22.30;64.40;;;;;;5001408;28;20030;-67
2023/07/01 06:50:40;;;;;;;5.30;2.63;;;22.30;64.00;;;;;;5002127;28;20216;-66
2023/07/01 06:53:06;;;;;;;5.60;2.65;;;22.30;64.10;;;;;;5001422;28;20173;-67
2023/07/01 06:55:32;;;;;;;3.88;2.42;;;22.30;64.30;;;;;;5001673;28;20109;-69
2023/07/01 06:58:01;;;;;;;7.65;2.45;;;22.30;64.30;;;;;;5000043;28;20569;-67
2023/07/01 07:00:26;;;;;;;3.58;2.10;;;22.30;64.10;;;;;;4998893;28;20116;-68
2023/07/01 07:02:51;;;;;;;2.70;1.80;;;22.30;64.10;;;;;;5002548;28;20173;-67
2023/07/01 07:05:17;;;;;;;3.08;2.33;;;22.30;63.80;;;;;;5003587;28;20026;-67
2023/07/01 07:07:42;;;;;;;4.03;2.42;;;22.30;63.40;;;;;;5001547;28;20021;-67
2023/07/01 07:10:08;;;;;;;3.90;2.40;;;22.40;63.90;;;;;;5003798;28;20492;-67
2023/07/01 07:12:34;;;;;;;2.88;1.92;;;22.30;63.50;;;;;;5002768;28;20030;-67
2023/07/01 07:14:59;;;;;;;4.70;1.92;;;22.30;63.70;;;;;;5000244;28;20030;-68
2023/07/01 07:17:25;;;;;;;2.92;2.13;;;22.30;63.60;;;;;;5001646;28;20038;-68
2023/07/01 07:19:50;;;;;;;4.20;2.42;;;22.30;63.60;;;;;;5003148;28;20026;-69
2023/07/01 07:22:16;;;;;;;3.92;2.28;;;22.30;63.70;;;;;;5003932;28;20033;-68
2023/07/01 07:24:41;;;;;;;3.50;2.05;;;22.30;63.50;;;;;;4998376;28;20030;-66
2023/07/01 07:27:07;;;;;;;3.90;2.08;;;22.30;63.70;;;;;;5001357;28;20023;-69
2023/07/01 07:29:35;;;;;;;3.13;2.50;;;22.30;63.30;;;;;;5005473;28;20120;-69
2023/07/01 07:32:02;;;;;;;2.90;2.03;;;22.30;63.40;;;;;;5003551;28;20084;-69
2023/07/01 07:34:28;;;;;;;2.05;1.70;;;22.30;63.30;;;;;;5007639;28;20034;-68
2023/07/01 07:36:54;;;;;;;4.05;1.98;;;22.30;63.30;;;;;;5008389;28;20544;-66
2023/07/01 07:39:19;;;;;;;3.58;1.98;;;22.30;63.30;;;;;;5005588;28;20093;-67
2023/07/01 07:41:46;;;;;;;4.28;2.30;;;22.30;63.20;;;;;;5008956;28;20335;-67
2023/07/01 07:44:12;;;;;;;2.25;1.77;;;22.20;63.20;;;;;;5005992;28;20034;-67
2023/07/01 07:46:38;;;;;;;3.85;2.30;;;22.30;63.20;;;;;;5006455;28;20060;-67
2023/07/01 07:49:04;;;;;;;3.00;2.00;;;22.20;63.10;;;;;;5007028;28;20329;-68
2023/07/01 07:51:30;;;;;;;2.75;2.20;;;22.30;63.20;;;;;;5006235;28;20044;-68
2023/07/01 07:53:56;;;;;;;2.05;1.60;;;22.30;63.10;;;;;;5007270;28;20076;-67
2023/07/01 07:56:21;;;;;;;2.42;1.73;;;22.30;63.30;;;;;;5005163;28;20066;-67
2023/07/01 07:58:47;;;;;;;3.20;2.72;;;22.30;63.20;;;;;;5003755;28;20576;-68
2023/07/01 08:01:13;;;;;;;4.15;1.80;;;22.30;63.30;;;;;;5007624;28;20057;-67
2023/07/01 08:03:40;;;;;;;2.40;1.98;;;22.20;63.80;;;;;;5006641;28;20092;-67
2023/07/01 08:06:06;;;;;;;2.35;1.95;;;22.20;63.20;;;;;;5002724;28;20080;-68
2023/07/01 08:08:31;;;;;;;3.25;2.05;;;22.20;63.90;;;;;;5003667;28;20061;-67
2023/07/01 08:11:00;;;;;;;3.08;1.67;;;22.20;63.10;;;;;;5003371;28;20026;-67
2023/07/01 08:13:25;;;;;;;4.90;2.22;;;22.20;63.00;;;;;;5006619;28;20552;-67
2023/07/01 08:15:51;;;;;;;4.07;2.20;;;22.20;63.10;;;;;;5005653;28;20022;-67
2023/07/01 08:18:17;;;;;;;2.22;1.77;;;22.20;63.10;;;;;;5005626;28;20587;-67
2023/07/01 08:20:46;;;;;;;2.50;2.05;;;22.20;63.20;;;;;;5004027;28;20053;-68
2023/07/01 08:23:15;;;;;;;2.60;2.03;;;22.30;63.20;;;;;;5005075;28;20026;-67
2023/07/01 08:25:42;;;;;;;2.05;1.85;;;22.20;63.10;;;;;;5003856;28;20041;-68
2023/07/01 08:28:07;;;;;;;2.70;2.33;;;22.20;63.00;;;;;;5005991;28;20026;-67
2023/07/01 08:30:33;;;;;;;2.35;2.15;;;22.20;63.20;;;;;;5006001;28;20104;-66
2023/07/01 08:32:58;;;;;;;2.78;2.00;;;22.20;63.00;;;;;;5004510;28;20080;-67
2023/07/01 08:35:24;;;;;;;2.67;2.00;;;22.20;63.20;;;;;;5001534;28;20049;-68
2023/07/01 08:37:49;;;;;;;3.47;2.03;;;22.20;63.00;;;;;;5001205;28;20061;-67
2023/07/01 08:40:15;;;;;;;2.50;2.30;;;22.20;63.10;;;;;;5004579;28;20566;-68
2023/07/01 08:42:48;;;;;;;2.08;1.85;;;22.20;63.00;;;;;;5006399;28;20080;-67
2023/07/01 08:45:14;;;;;;;2.85;2.13;;;22.20;63.10;;;;;;5004557;28;20050;-67
2023/07/01 08:47:40;;;;;;;2.35;2.15;;;22.20;63.00;;;;;;5005504;28;20088;-68
2023/07/01 08:50:07;;;;;;;3.88;2.33;;;22.20;63.00;;;;;;5004642;28;20252;-68
2023/07/01 08:52:44;;;;;;;3.42;2.22;;;22.20;63.00;;;;;;5004244;28;20029;-67
2023/07/01 08:55:12;;;;;;;2.58;1.85;;;22.20;62.80;;;;;;5021800;28;20037;-68
2023/07/01 08:57:41;;;;;;;2.35;2.00;;;22.20;62.90;;;;;;5004150;28;20084;-68
2023/07/01 09:00:09;;;;;;;5.55;2.40;;;22.20;62.80;;;;;;5001237;28;20471;-68
2023/07/01 09:02:35;;;;;;;3.25;2.03;;;22.20;62.60;;;;;;5003655;28;20033;-68
2023/07/01 09:05:01;;;;;;;2.55;1.90;;;22.20;62.80;;;;;;5018869;28;20690;-68
2023/07/01 09:07:26;;;;;;;2.00;1.80;;;22.20;62.80;;;;;;5000411;28;20041;-67
2023/07/01 09:09:52;;;;;;;2.17;1.98;;;22.20;62.50;;;;;;5003015;28;20076;-67
2023/07/01 09:12:17;;;;;;;2.67;2.47;;;22.20;62.70;;;;;;5004272;28;20042;-68
2023/07/01 09:14:59;;;;;;;2.28;2.08;;;22.20;62.70;;;;;;5004135;28;20031;-68
2023/07/01 09:17:31;;;;;;;2.38;2.17;;;22.20;62.60;;;;;;5004129;28;20038;-68
2023/07/01 09:19:59;;;;;;;2.63;2.03;;;22.20;62.50;;;;;;5003132;28;20164;-67
2023/07/01 09:22:25;;;;;;;3.45;2.00;;;22.20;62.60;;;;;;5003149;28;20092;-68
2023/07/01 09:24:50;;;;;;;2.45;2.13;;;22.20;62.60;;;;;;5000827;28;20053;-67
2023/07/01 09:27:16;;;;;;;2.85;1.60;;;22.20;62.50;;;;;;5000380;28;20037;-67
2023/07/01 09:29:42;;;;;;;2.40;1.70;;;22.20;62.60;;;;;;5004558;28;20038;-68
2023/07/01 09:32:08;;;;;;;1.98;1.85;;;22.20;62.60;;;;;;5001286;28;20030;-67
2023/07/01 09:34:55;;;;;;;2.75;2.47;;;22.20;62.30;;;;;;5001678;28;20061;-68
2023/07/01 09:37:22;;;;;;;2.80;2.10;;;22.20;62.50;;;;;;4999307;28;20444;-68
2023/07/01 09:39:48;;;;;;;2.40;1.83;;;22.20;62.20;;;;;;5003327;28;20066;-68
2023/07/01 09:42:16;;;;;;;2.00;1.80;;;22.20;62.40;;;;;;5005446;28;20099;-68
2023/07/01 09:44:42;;;;;;;2.22;1.80;;;22.20;62.30;;;;;;5004734;28;20512;-67
2023/07/01 09:47:07;;;;;;;2.15;1.95;;;22.20;62.40;;;;;;5003962;28;20242;-67
2023/07/01 09:49:44;;;;;;;2.00;1.80;;;22.20;62.20;;;;;;5006862;28;20087;-67
2023/07/01 09:52:09;;;;;;;2.10;1.90;;;22.20;62.40;;;;;;5003650;28;20142;-68
2023/07/01 09:54:38;;;;;;;2.92;2.00;;;22.20;62.40;;;;;;5003636;28;20296;-67
2023/07/01 09:57:04;;;;;;;3.00;1.98;;;22.20;62.40;;;;;;5002666;28;20048;-67
2023/07/01 09:59:29;;;;;;;2.17;1.90;;;22.20;62.40;;;;;;5003748;28;20390;-68
2023/07/01 10:01:57;;;;;;;1.83;1.63;;;22.20;62.30;;;;;;5000342;28;20045;-68
2023/07/01 10:04:25;;;;;;;2.95;1.80;;;22.20;62.00;;;;;;5004470;28;20541;-67
2023/07/01 10:06:55;;;;;;;2.13;1.88;;;22.20;62.20;;;;;;4999776;28;20037;-67
2023/07/01 10:09:23;;;;;;;1.85;1.75;;;22.20;62.40;;;;;;5002263;28;20034;-68
2023/07/01 10:11:53;;;;;;;3.13;2.08;;;22.20;62.30;;;;;;5002950;28;20190;-67
2023/07/01 10:14:21;;;;;;;2.42;2.10;;;22.20;62.30;;;;;;5004010;28;20101;-69
2023/07/01 10:16:47;;;;;;;1.90;1.67;;;22.20;62.20;;;;;;5003324;28;20099;-66
2023/07/01 10:19:33;;;;;;;2.03;1.83;;;22.10;62.00;;;;;;5003114;28;20121;-68
2023/07/01 10:22:17;;;;;;;2.17;1.90;;;22.10;62.00;;;;;;5002125;28;20036;-68
2023/07/01 10:24:43;;;;;;;2.42;1.88;;;22.20;62.10;;;;;;5002199;28;20038;-68
2023/07/01 10:27:08;;;;;;;3.78;2.00;;;22.20;62.10;;;;;;5002754;28;20030;-68
2023/07/01 10:29:36;;;;;;;1.80;1.70;;;22.20;62.20;;;;;;4996872;28;20405;-68
2023/07/01 10:32:11;;;;;;;2.13;1.90;;;22.10;62.00;;;;;;5000129;28;20121;-68
2023/07/01 10:34:55;;;;;;;2.20;1.88;;;22.20;62.30;;;;;;4998862;28;20087;-67
2023/07/01 10:37:22;;;;;;;1.85;1.65;;;22.10;62.20;;;;;;5002112;28;20133;-68
2023/07/01 10:39:47;;;;;;;1.85;1.75;;;22.20;62.20;;;;;;5003015;28;20061;-67
2023/07/01 10:42:34;;;;;;;1.80;1.70;;;22.10;61.60;;;;;;5000270;28;20069;-68
2023/07/01 10:45:11;;;;;;;2.13;1.85;;;22.10;61.80;;;;;;5001050;28;20057;-68
2023/07/01 10:47:37;;;;;;;2.03;1.80;;;22.20;62.10;;;;;;5001872;28;20471;-69
2023/07/01 10:50:08;;;;;;;2.38;1.77;;;22.20;62.10;;;;;;5002660;28;20091;-68
2023/07/01 10:52:59;;;;;;;2.80;1.73;;;22.20;62.10;;;;;;5000238;28;20026;-68
2023/07/01 10:55:44;;;;;;;2.05;1.85;;;22.20;61.70;;;;;;4998788;28;20064;-68
2023/07/01 10:58:26;;;;;;;3.78;2.10;;;22.20;62.10;;;;;;4999636;28;20042;-69
2023/07/01 11:00:55;;;;;;;2.25;2.00;;;22.10;62.10;;;;;;4994305;28;20034;-69
2023/07/01 11:03:33;;;;;;;2.08;1.88;;;22.20;61.80;;;;;;5012470;28;20498;-68
2023/07/01 11:06:00;;;;;;;1.67;1.58;;;22.10;61.80;;;;;;5004069;28;20029;-67
2023/07/01 11:08:27;;;;;;;1.70;1.50;;;22.10;61.90;;;;;;5000632;28;20056;-68
2023/07/01 11:10:53;;;;;;;3.58;1.92;;;22.10;62.00;;;;;;5003025;28;20125;-67
2023/07/01 11:13:18;;;;;;;2.55;2.35;;;22.10;61.60;;;;;;5003379;28;20248;-68
2023/07/01 11:16:06;;;;;;;2.33;2.08;;;22.10;60.90;;;;;;5002732;28;20034;-67
2023/07/01 11:18:50;;;;;;;1.77;1.67;;;22.20;61.70;;;;;;5017130;28;20022;-68
2023/07/01 11:21:24;;;;;;;2.20;2.00;;;22.20;61.50;;;;;;5000257;28;20109;-67
2023/07/01 11:23:53;;;;;;;2.00;1.83;;;22.20;60.90;;;;;;5001602;28;20237;-65
2023/07/01 11:26:24;;;;;;;1.85;1.75;;;22.10;61.30;;;;;;4992307;28;20030;-69
2023/07/01 11:28:51;;;;;;;3.55;2.00;;;22.20;61.60;;;;;;4998875;28;20038;-66
2023/07/01 11:31:17;;;;;;;4.18;2.05;;;22.10;61.50;;;;;;5000869;28;20022;-68
2023/07/01 11:33:44;;;;;;;2.15;1.95;;;22.10;61.20;;;;;;5001906;28;20030;-68
2023/07/01 11:36:12;;;;;;;2.55;2.00;;;22.20;61.50;;;;;;4998548;28;20041;-68
2023/07/01 11:38:37;;;;;;;2.13;1.92;;;22.20;61.70;;;;;;5003124;28;20030;-68
2023/07/01 11:41:03;;;;;;;1.80;1.70;;;22.10;61.60;;;;;;5002267;28;20072;-68
2023/07/01 11:43:28;;;;;;;1.88;1.77;;;22.10;61.60;;;;;;5002920;28;20079;-67
2023/07/01 11:45:54;;;;;;;1.95;1.70;;;22.10;61.40;;;;;;5002394;28;20091;-68
2023/07/01 11:48:30;;;;;;;2.40;2.00;;;22.10;61.40;;;;;;5001420;28;20035;-69
2023/07/01 11:50:56;;;;;;;2.45;2.25;;;22.10;61.50;;;;;;4999725;28;20029;-67
2023/07/01 11:53:21;;;;;;;2.58;1.70;;;22.20;61.20;;;;;;5002726;28;20350;-68
2023/07/01 11:55:47;;;;;;;2.65;2.45;;;22.20;61.60;;;;;;5002833;28;20095;-64
2023/07/01 11:58:28;;;;;;;2.95;2.13;;;22.20;61.50;;;;;;4996086;28;20041;-69
2023/07/01 12:00:55;;;;;;;2.70;2.25;;;22.20;61.50;;;;;;5001807;28;20046;-67
2023/07/01 12:03:20;;;;;;;5.97;3.10;;;22.20;61.60;;;;;;5000804;28;20040;-67
2023/07/01 12:05:46;;;;;;;2.75;2.55;;;22.20;61.40;;;;;;5000877;28;20034;-66
2023/07/01 12:08:12;;;;;;;2.58;1.88;;;22.10;61.30;;;;;;5001493;28;20418;-66
2023/07/01 12:10:40;;;;;;;3.22;2.22;;;22.10;61.40;;;;;;5003077;28;20460;-68
2023/07/01 12:13:06;;;;;;;3.90;2.40;;;22.20;61.30;;;;;;5001777;28;20691;-67
2023/07/01 12:15:33;;;;;;;2.75;2.25;;;22.10;61.50;;;;;;5003353;28;20030;-67
2023/07/01 12:18:21;;;;;;;2.85;2.47;;;22.10;61.60;;;;;;5002836;28;20508;-67
2023/07/01 12:20:47;;;;;;;2.75;2.47;;;22.20;61.50;;;;;;5005132;28;20041;-67
2023/07/01 12:23:12;;;;;;;2.67;2.42;;;22.10;61.50;;;;;;5005826;28;20041;-68
2023/07/01 12:25:37;;;;;;;2.35;2.15;;;22.10;61.50;;;;;;5005652;28;21203;-67
2023/07/01 12:28:04;;;;;;;3.88;2.55;;;22.20;60.90;;;;;;5005005;28;20100;-68
2023/07/01 12:30:30;;;;;;;2.55;2.35;;;22.20;61.40;;;;;;5005959;28;20045;-67
2023/07/01 12:32:55;;;;;;;3.63;2.47;;;22.20;61.50;;;;;;5005725;28;20033;-66
2023/07/01 12:35:21;;;;;;;2.75;2.20;;;22.20;61.60;;;;;;5006167;28;20168;-67
2023/07/01 12:37:47;;;;;;;3.70;2.63;;;22.20;61.60;;;;;;5004909;28;20053;-66
2023/07/01 12:40:13;;;;;;;3.35;2.92;;;22.20;61.50;;;;;;5003072;28;20511;-69
2023/07/01 12:42:38;;;;;;;3.17;2.47;;;22.20;61.70;;;;;;5002536;28;20037;-67
2023/07/01 12:45:06;;;;;;;2.63;2.40;;;22.20;61.70;;;;;;5003341;28;20033;-67